createdAt,value
2023-01-29T00:02:19.938Z,103002.69
2023-01-29T00:04:47.875Z,103000.28
2023-01-29T00:07:15.730Z,102989.56
2023-01-29T00:09:43.493Z,102989.91
2023-01-29T00:12:12.597Z,102979.81
2023-01-29T00:14:40.375Z,102971.31
2023-01-29T00:17:08.178Z,102975.13
2023-01-29T00:19:36.695Z,102959.00
2023-01-29T00:22:04.285Z,102956.94
2023-01-29T00:24:32.146Z,102953.69
2023-01-29T00:26:59.926Z,102952.25
2023-01-29T00:29:29.090Z,102950.00
2023-01-29T00:31:57.029Z,102951.38
2023-01-29T00:34:24.876Z,102949.75
2023-01-29T00:36:52.660Z,102949.56
2023-01-29T00:39:31.398Z,102957.41
2023-01-29T00:42:18.064Z,102959.25
2023-01-29T00:44:59.381Z,102956.78
2023-01-29T00:47:34.377Z,102962.22
2023-01-29T00:50:03.133Z,102949.13
2023-01-29T00:52:30.927Z,102942.09
2023-01-29T00:55:00.541Z,102948.13
2023-01-29T00:57:30.959Z,102947.31
2023-01-29T01:00:00.307Z,102937.63
2023-01-29T01:02:42.616Z,102941.06
2023-01-29T01:05:14.148Z,102939.63
2023-01-29T01:07:42.426Z,102936.41
2023-01-29T01:10:22.004Z,102938.41
2023-01-29T01:12:51.976Z,102932.34
2023-01-29T01:15:21.774Z,102930.91
2023-01-29T01:17:52.531Z,102936.34
2023-01-29T01:20:20.363Z,102932.75
2023-01-29T01:22:48.253Z,102921.88
2023-01-29T01:25:17.577Z,102922.31
2023-01-29T01:27:45.506Z,102928.38
2023-01-29T01:30:15.142Z,102929.97
2023-01-29T01:32:44.573Z,102935.84
2023-01-29T01:35:13.721Z,102941.69
2023-01-29T01:37:41.795Z,102936.47
2023-01-29T01:40:18.036Z,102938.09
2023-01-29T01:42:49.314Z,102943.34
2023-01-29T01:45:22.942Z,102936.09
2023-01-29T01:47:55.485Z,102941.94
2023-01-29T01:50:27.913Z,102947.19
2023-01-29T01:53:03.120Z,102943.13
2023-01-29T01:55:31.333Z,102943.34
2023-01-29T01:58:04.266Z,102944.97
2023-01-29T02:00:32.013Z,102946.94
2023-01-29T02:03:19.714Z,102946.94
2023-01-29T02:06:08.491Z,102934.84
2023-01-29T02:09:01.023Z,102929.44
2023-01-29T02:11:28.828Z,102930.84
2023-01-29T02:13:56.628Z,102942.97
2023-01-29T02:16:27.137Z,102931.22
2023-01-29T02:18:58.182Z,102938.47
2023-01-29T02:21:51.656Z,102935.22
2023-01-29T02:24:38.694Z,102927.38
2023-01-29T02:27:13.302Z,102935.22
2023-01-29T02:29:54.100Z,102942.25
2023-01-29T02:32:30.691Z,102935.03
2023-01-29T02:35:28.365Z,102936.47
2023-01-29T02:38:02.827Z,102948.19
2023-01-29T02:40:35.484Z,102961.91
2023-01-29T02:43:09.766Z,102953.03
2023-01-29T02:45:48.542Z,102950.44
2023-01-29T02:48:20.653Z,102962.34
2023-01-29T02:50:55.576Z,102958.13
2023-01-29T02:53:31.889Z,102960.75
2023-01-29T02:56:03.222Z,102956.31
2023-01-29T02:58:34.122Z,102958.75
2023-01-29T03:01:08.960Z,102957.56
2023-01-29T03:03:41.703Z,102954.75
2023-01-29T03:06:18.233Z,102948.69
2023-01-29T03:08:52.144Z,102951.31
2023-01-29T03:11:19.953Z,102947.69
2023-01-29T03:13:53.895Z,102943.06
2023-01-29T03:16:31.282Z,102937.03
2023-01-29T03:19:06.305Z,102932.97
2023-01-29T03:21:55.327Z,102927.31
2023-01-29T03:24:49.305Z,102925.88
2023-01-29T03:27:38.079Z,102920.84
2023-01-29T03:30:26.516Z,102918.78
2023-01-29T03:33:11.150Z,102921.16
2023-01-29T03:35:53.098Z,102908.06
2023-01-29T03:38:21.682Z,102903.81
2023-01-29T03:40:54.614Z,102901.38
2023-01-29T03:43:32.221Z,102894.97
2023-01-29T03:46:08.228Z,102892.72
2023-01-29T03:48:41.337Z,102894.88
2023-01-29T03:51:20.554Z,102891.28
2023-01-29T03:53:54.850Z,102886.84
2023-01-29T03:56:38.351Z,102894.09
2023-01-29T03:59:18.205Z,102888.03
2023-01-29T04:02:05.966Z,102884.00
2023-01-29T04:04:37.877Z,102883.16
2023-01-29T04:07:12.702Z,102884.97
2023-01-29T04:09:47.526Z,102878.94
2023-01-29T04:12:20.761Z,102871.09
2023-01-29T04:14:50.618Z,102870.66
2023-01-29T04:17:23.832Z,102863.81
2023-01-29T04:20:05.438Z,102865.78
2023-01-29T04:22:36.399Z,102867.59
2023-01-29T04:25:08.485Z,102868.59
2023-01-29T04:27:44.480Z,102870.38
2023-01-29T04:30:24.003Z,102858.31
2023-01-29T04:33:04.018Z,102860.53
2023-01-29T04:35:45.765Z,102862.53
2023-01-29T04:38:19.984Z,102861.91
2023-01-29T04:40:53.408Z,102855.72
2023-01-29T04:43:28.150Z,102861.91
2023-01-29T04:46:10.074Z,102856.88
2023-01-29T04:48:47.629Z,102846.41
2023-01-29T04:51:23.739Z,102850.00
2023-01-29T04:53:56.483Z,102849.19
2023-01-29T04:56:30.481Z,102845.19
2023-01-29T04:59:03.518Z,102842.72
2023-01-29T05:01:33.188Z,102835.25
2023-01-29T05:04:04.406Z,102834.47
2023-01-29T05:06:34.381Z,102836.88
2023-01-29T05:09:03.448Z,102832.81
2023-01-29T05:11:33.439Z,102833.03
2023-01-29T05:14:04.827Z,102830.56
2023-01-29T05:16:42.162Z,102831.75
2023-01-29T05:19:11.034Z,102828.50
2023-01-29T05:21:41.873Z,102832.16
2023-01-29T05:24:11.385Z,102825.28
2023-01-29T05:26:56.792Z,102833.94
2023-01-29T05:29:24.628Z,102839.38
2023-01-29T05:31:52.401Z,102847.22
2023-01-29T05:34:20.174Z,102849.03
2023-01-29T05:36:49.312Z,102847.59
2023-01-29T05:39:17.325Z,102839.75
2023-01-29T05:41:45.224Z,102839.53
2023-01-29T05:44:13.194Z,102842.97
2023-01-29T05:46:41.012Z,102839.75
2023-01-29T05:49:08.855Z,102840.72
2023-01-29T05:51:36.691Z,102850.41
2023-01-29T05:54:06.293Z,102848.56
2023-01-29T05:56:34.115Z,102841.72
2023-01-29T05:59:01.905Z,102832.09
2023-01-29T06:01:29.770Z,102818.19
2023-01-29T06:03:57.550Z,102818.34
2023-01-29T06:06:25.332Z,102819.16
2023-01-29T06:08:53.085Z,102819.16
2023-01-29T06:11:22.499Z,102810.72
2023-01-29T06:13:50.352Z,102807.28
2023-01-29T06:16:18.381Z,102804.84
2023-01-29T06:18:46.152Z,102805.84
2023-01-29T06:21:15.023Z,102800.59
2023-01-29T06:23:42.968Z,102806.66
2023-01-29T06:26:14.193Z,102806.66
2023-01-29T06:28:43.820Z,102795.38
2023-01-29T06:31:27.457Z,102792.75
2023-01-29T06:33:59.585Z,102795.00
2023-01-29T06:36:27.397Z,102795.81
2023-01-29T06:38:55.191Z,102796.66
2023-01-29T06:41:25.422Z,102789.78
2023-01-29T06:43:54.788Z,102792.41
2023-01-29T06:46:22.669Z,102792.19
2023-01-29T06:48:50.486Z,102798.25
2023-01-29T06:51:18.595Z,102803.13
2023-01-29T06:53:46.931Z,102791.63
2023-01-29T06:56:14.849Z,102786.41
2023-01-29T06:58:43.591Z,102784.81
2023-01-29T07:01:29.078Z,102792.66
2023-01-29T07:04:01.045Z,102795.88
2023-01-29T07:06:29.868Z,102784.81
2023-01-29T07:08:57.756Z,102777.16
2023-01-29T07:11:25.636Z,102784.81
2023-01-29T07:13:53.423Z,102795.25
2023-01-29T07:16:23.436Z,102789.41
2023-01-29T07:18:51.253Z,102786.97
2023-01-29T07:21:19.065Z,102786.19
2023-01-29T07:23:46.872Z,102785.16
2023-01-29T07:26:14.690Z,102789.78
2023-01-29T07:28:42.635Z,102792.41
2023-01-29T07:31:14.330Z,102779.94
2023-01-29T07:33:44.110Z,102784.19
2023-01-29T07:36:13.538Z,102799.25
2023-01-29T07:38:41.342Z,102793.00
2023-01-29T07:41:10.329Z,102791.84
2023-01-29T07:43:38.139Z,102783.78
2023-01-29T07:46:06.565Z,102783.78
2023-01-29T07:48:34.218Z,102774.13
2023-01-29T07:51:03.401Z,102783.00
2023-01-29T07:53:31.232Z,102770.91
2023-01-29T07:55:59.079Z,102770.09
2023-01-29T07:58:26.924Z,102761.25
2023-01-29T08:00:54.727Z,102751.59
2023-01-29T08:03:22.533Z,102751.41
2023-01-29T08:05:50.416Z,102755.00
2023-01-29T08:08:19.599Z,102744.38
2023-01-29T08:10:47.432Z,102752.84
2023-01-29T08:13:20.485Z,102746.78
2023-01-29T08:15:48.341Z,102746.44
2023-01-29T08:18:16.274Z,102741.81
2023-01-29T08:20:44.098Z,102744.06
2023-01-29T08:23:14.822Z,102745.50
2023-01-29T08:25:44.310Z,102739.88
2023-01-29T08:28:12.744Z,102745.53
2023-01-29T08:30:40.496Z,102744.53
2023-01-29T08:33:09.513Z,102741.53
2023-01-29T08:35:37.537Z,102737.72
2023-01-29T08:38:06.457Z,102732.69
2023-01-29T08:40:35.853Z,102729.25
2023-01-29T08:43:09.602Z,102720.84
2023-01-29T08:45:39.422Z,102716.22
2023-01-29T08:48:07.829Z,102723.50
2023-01-29T08:50:35.938Z,102710.41
2023-01-29T08:53:07.657Z,102718.09
2023-01-29T08:55:37.717Z,102716.69
2023-01-29T08:58:07.220Z,102714.09
2023-01-29T09:00:35.739Z,102715.69
2023-01-29T09:03:03.784Z,102717.31
2023-01-29T09:05:31.710Z,102715.31
2023-01-29T09:07:59.560Z,102717.56
2023-01-29T09:10:27.828Z,102716.53
2023-01-29T09:12:55.676Z,102702.47
2023-01-29T09:15:24.972Z,102718.41
2023-01-29T09:17:52.956Z,102713.78
2023-01-29T09:20:21.403Z,102711.38
2023-01-29T09:22:49.383Z,102708.53
2023-01-29T09:25:17.685Z,102716.03
2023-01-29T09:27:45.529Z,102719.25
2023-01-29T09:30:13.914Z,102722.28
2023-01-29T09:32:53.123Z,102720.28
2023-01-29T09:35:21.853Z,102719.06
2023-01-29T09:37:49.858Z,102718.09
2023-01-29T09:40:26.932Z,102718.69
2023-01-29T09:42:59.843Z,102719.31
2023-01-29T09:45:29.389Z,102712.88
2023-01-29T09:48:01.345Z,102711.06
2023-01-29T09:50:33.352Z,102713.50
2023-01-29T09:53:06.286Z,102711.91
2023-01-29T09:55:40.102Z,102716.56
2023-01-29T09:58:15.327Z,102713.38
2023-01-29T10:00:52.782Z,102717.00
2023-01-29T10:03:45.158Z,102704.53
2023-01-29T10:06:24.366Z,102707.53
2023-01-29T10:09:26.352Z,102705.72
2023-01-29T10:12:06.545Z,102716.22
2023-01-29T10:14:45.471Z,102699.69
2023-01-29T10:17:29.295Z,102697.88
2023-01-29T10:20:17.275Z,102705.16
2023-01-29T10:23:05.309Z,102690.41
2023-01-29T10:25:37.840Z,102688.22
2023-01-29T10:28:17.537Z,102694.47
2023-01-29T10:30:50.054Z,102690.03
2023-01-29T10:33:23.908Z,102692.44
2023-01-29T10:35:57.287Z,102681.16
2023-01-29T10:38:36.197Z,102672.06
2023-01-29T10:41:20.678Z,102667.03
2023-01-29T10:44:00.016Z,102658.19
2023-01-29T10:46:40.478Z,102653.94
2023-01-29T10:49:23.248Z,102654.38
2023-01-29T10:52:09.384Z,102651.34
2023-01-29T10:54:51.073Z,102640.47
2023-01-29T10:57:34.027Z,102644.50
2023-01-29T11:00:12.804Z,102633.63
2023-01-29T11:02:45.298Z,102629.00
2023-01-29T11:05:21.998Z,102626.16
2023-01-29T11:08:01.894Z,102623.75
2023-01-29T11:10:33.741Z,102617.09
2023-01-29T11:13:01.645Z,102622.56
2023-01-29T11:15:33.840Z,102619.75
2023-01-29T11:18:10.567Z,102610.06
2023-01-29T11:20:38.382Z,102604.22
2023-01-29T11:23:07.759Z,102613.69
2023-01-29T11:25:35.832Z,102607.63
2023-01-29T11:28:05.358Z,102604.63
2023-01-29T11:30:35.289Z,102601.00
2023-01-29T11:33:18.879Z,102619.75
2023-01-29T11:35:47.226Z,102604.03
2023-01-29T11:38:25.017Z,102601.63
2023-01-29T11:40:54.043Z,102593.75
2023-01-29T11:43:31.302Z,102586.28
2023-01-29T11:46:02.534Z,102579.00
2023-01-29T11:48:41.839Z,102581.63
2023-01-29T11:51:12.476Z,102581.03
2023-01-29T11:53:44.190Z,102578.63
2023-01-29T11:56:21.655Z,102578.41
2023-01-29T11:58:51.461Z,102575.78
2023-01-29T12:01:29.992Z,102566.09
2023-01-29T12:03:58.109Z,102560.25
2023-01-29T12:06:32.221Z,102559.44
2023-01-29T12:09:03.802Z,102552.41
2023-01-29T12:11:33.473Z,102551.97
2023-01-29T12:14:03.489Z,102554.19
2023-01-29T12:16:34.442Z,102546.53
2023-01-29T12:19:11.715Z,102541.09
2023-01-29T12:21:47.229Z,102533.22
2023-01-29T12:24:32.444Z,102523.13
2023-01-29T12:27:08.840Z,102509.41
2023-01-29T12:29:45.273Z,102516.91
2023-01-29T12:32:27.484Z,102510.03
2023-01-29T12:35:00.061Z,102502.75
2023-01-29T12:37:39.307Z,102502.56
2023-01-29T12:40:15.917Z,102495.09
2023-01-29T12:42:48.471Z,102499.72
2023-01-29T12:45:19.772Z,102484.59
2023-01-29T12:47:50.359Z,102481.78
2023-01-29T12:50:22.245Z,102480.97
2023-01-29T12:52:54.793Z,102467.47
2023-01-29T12:55:27.333Z,102471.28
2023-01-29T12:57:58.587Z,102462.44
2023-01-29T13:00:29.316Z,102438.81
2023-01-29T13:03:02.820Z,102447.91
2023-01-29T13:05:37.615Z,102423.09
2023-01-29T13:08:09.840Z,102429.75
2023-01-29T13:10:44.048Z,102410.56
2023-01-29T13:13:18.032Z,102410.56
2023-01-29T13:15:47.753Z,102399.88
2023-01-29T13:18:33.706Z,102393.03
2023-01-29T13:21:02.263Z,102379.72
2023-01-29T13:23:35.077Z,102380.75
2023-01-29T13:26:05.708Z,102367.19
2023-01-29T13:28:34.014Z,102363.34
2023-01-29T13:31:19.442Z,102359.50
2023-01-29T13:33:55.083Z,102356.47
2023-01-29T13:36:28.998Z,102351.00
2023-01-29T13:39:03.733Z,102351.19
2023-01-29T13:41:39.684Z,102347.34
2023-01-29T13:44:19.215Z,102349.56
2023-01-29T13:46:53.108Z,102346.50
2023-01-29T13:49:31.287Z,102346.91
2023-01-29T13:52:00.584Z,102346.91
2023-01-29T13:54:29.019Z,102345.09
2023-01-29T13:57:02.582Z,102343.88
2023-01-29T14:00:00.576Z,102340.44
2023-01-29T14:02:30.394Z,102346.88
2023-01-29T14:05:35.468Z,102328.50
2023-01-29T14:08:04.697Z,102336.16
2023-01-29T14:10:33.847Z,102338.00
2023-01-29T14:13:35.376Z,102346.44
2023-01-29T14:16:34.742Z,102323.44
2023-01-29T14:19:04.841Z,102317.78
2023-01-29T14:21:34.857Z,102321.97
2023-01-29T14:24:12.801Z,102312.06
2023-01-29T14:26:46.011Z,102317.13
2023-01-29T14:29:34.250Z,102327.41
2023-01-29T14:32:21.296Z,102325.00
2023-01-29T14:34:51.674Z,102318.53
2023-01-29T14:37:23.202Z,102310.03
2023-01-29T14:39:53.117Z,102308.78
2023-01-29T14:42:25.751Z,102298.06
2023-01-29T14:45:01.817Z,102306.94
2023-01-29T14:47:55.886Z,102299.06
2023-01-29T14:50:46.083Z,102299.06
2023-01-29T14:53:20.807Z,102304.53
2023-01-29T14:55:53.934Z,102302.72
2023-01-29T14:58:26.953Z,102298.28
2023-01-29T15:00:59.397Z,102301.13
2023-01-29T15:03:36.719Z,102285.59
2023-01-29T15:06:07.884Z,102272.47
2023-01-29T15:08:39.761Z,102273.06
2023-01-29T15:11:32.361Z,102278.09
2023-01-29T15:14:07.789Z,102262.78
2023-01-29T15:16:45.792Z,102258.34
2023-01-29T15:19:21.388Z,102262.78
2023-01-29T15:22:10.618Z,102268.84
2023-01-29T15:24:39.319Z,102268.03
2023-01-29T15:27:10.761Z,102274.09
2023-01-29T15:29:39.717Z,102264.38
2023-01-29T15:32:14.568Z,102261.97
2023-01-29T15:34:43.711Z,102258.75
2023-01-29T15:37:26.345Z,102256.13
2023-01-29T15:39:54.277Z,102248.25
2023-01-29T15:42:25.716Z,102241.63
2023-01-29T15:44:55.487Z,102237.38
2023-01-29T15:47:33.671Z,102241.84
2023-01-29T15:50:01.692Z,102241.03
2023-01-29T15:52:35.051Z,102235.97
2023-01-29T15:55:05.834Z,102223.88
2023-01-29T15:57:37.506Z,102235.38
2023-01-29T16:00:08.044Z,102229.34
2023-01-29T16:02:41.891Z,102220.69
2023-01-29T16:05:15.298Z,102234.81
2023-01-29T16:07:43.802Z,102238.66
2023-01-29T16:10:18.738Z,102238.66
2023-01-29T16:12:51.350Z,102241.69
2023-01-29T16:15:25.027Z,102241.91
2023-01-29T16:17:54.446Z,102247.59
2023-01-29T16:20:33.681Z,102235.16
2023-01-29T16:23:01.818Z,102242.03
2023-01-29T16:25:31.259Z,102231.59
2023-01-29T16:27:59.478Z,102239.91
2023-01-29T16:30:28.678Z,102245.78
2023-01-29T16:33:04.860Z,102235.47
2023-01-29T16:35:33.952Z,102249.00
2023-01-29T16:38:06.024Z,102235.31
2023-01-29T16:40:37.536Z,102235.94
2023-01-29T16:43:46.310Z,102223.47
2023-01-29T16:46:25.186Z,102221.25
2023-01-29T16:48:54.796Z,102219.47
2023-01-29T16:51:26.988Z,102213.25
2023-01-29T16:54:00.425Z,102218.13
2023-01-29T16:56:31.639Z,102213.88
2023-01-29T16:59:00.578Z,102219.34
2023-01-29T17:01:30.734Z,102206.06
2023-01-29T17:04:07.592Z,102215.13
2023-01-29T17:06:36.156Z,102209.72
2023-01-29T17:09:04.659Z,102212.75
2023-01-29T17:11:35.478Z,102209.34
2023-01-29T17:14:04.121Z,102202.91
2023-01-29T17:16:34.328Z,102219.41
2023-01-29T17:19:16.320Z,102200.47
2023-01-29T17:21:43.936Z,102194.25
2023-01-29T17:24:11.713Z,102198.06
2023-01-29T17:26:40.485Z,102184.16
2023-01-29T17:29:15.455Z,102199.06
2023-01-29T17:31:43.775Z,102204.53
2023-01-29T17:34:14.901Z,102184.38
2023-01-29T17:36:43.286Z,102190.44
2023-01-29T17:39:18.042Z,102190.44
2023-01-29T17:41:48.310Z,102185.19
2023-01-29T17:44:16.398Z,102184.16
2023-01-29T17:46:44.354Z,102181.53
2023-01-29T17:49:23.568Z,102157.75
2023-01-29T17:51:52.052Z,102163.41
2023-01-29T17:54:20.204Z,102161.78
2023-01-29T17:56:48.525Z,102153.50
2023-01-29T17:59:17.847Z,102147.25
2023-01-29T18:01:46.343Z,102142.63
2023-01-29T18:04:14.348Z,102138.97
2023-01-29T18:06:45.254Z,102148.66
2023-01-29T18:09:14.732Z,102140.34
2023-01-29T18:11:43.231Z,102127.06
2023-01-29T18:14:14.401Z,102125.03
2023-01-29T18:16:44.135Z,102126.63
2023-01-29T18:19:14.738Z,102120.38
2023-01-29T18:21:43.923Z,102125.41
2023-01-29T18:24:11.706Z,102113.13
2023-01-29T18:26:39.647Z,102118.94
2023-01-29T18:29:07.454Z,102123.19
2023-01-29T18:31:35.342Z,102102.81
2023-01-29T18:34:03.268Z,102093.13
2023-01-29T18:36:31.099Z,102092.91
2023-01-29T18:39:00.325Z,102085.03
2023-01-29T18:41:28.217Z,102083.00
2023-01-29T18:43:56.046Z,102067.09
2023-01-29T18:46:24.310Z,102070.50
2023-01-29T18:48:52.192Z,102053.75
2023-01-29T18:51:20.012Z,102045.91
2023-01-29T18:53:50.937Z,102047.72
2023-01-29T18:56:20.271Z,102053.53
2023-01-29T18:58:52.185Z,102055.34
2023-01-29T19:01:23.023Z,102038.63
2023-01-29T19:03:50.874Z,102028.13
2023-01-29T19:06:18.671Z,102044.69
2023-01-29T19:08:47.405Z,102026.09
2023-01-29T19:11:15.314Z,102030.34
2023-01-29T19:13:44.511Z,102030.34
2023-01-29T19:16:13.498Z,102010.19
2023-01-29T19:18:41.424Z,101996.28
2023-01-29T19:21:11.022Z,101996.28
2023-01-29T19:23:39.138Z,101994.66
2023-01-29T19:26:07.438Z,102005.94
2023-01-29T19:28:35.395Z,102017.22
2023-01-29T19:31:04.876Z,102001.28
2023-01-29T19:33:32.671Z,102001.28
2023-01-29T19:36:00.922Z,101993.41
2023-01-29T19:38:29.200Z,101989.56
2023-01-29T19:40:57.085Z,102000.06
2023-01-29T19:43:24.967Z,101994.38
2023-01-29T19:45:59.056Z,101983.09
2023-01-29T19:48:28.927Z,101986.53
2023-01-29T19:50:58.309Z,101993.34
2023-01-29T19:53:26.499Z,101991.78
2023-01-29T19:56:01.491Z,101977.63
2023-01-29T19:58:29.866Z,101965.31
2023-01-29T20:00:58.317Z,101968.75
2023-01-29T20:03:28.869Z,101977.44
2023-01-29T20:05:57.099Z,101974.59
2023-01-29T20:08:25.001Z,101980.84
2023-01-29T20:10:52.881Z,101979.81
2023-01-29T20:13:20.752Z,101973.56
2023-01-29T20:15:49.753Z,101964.69
2023-01-29T20:18:18.142Z,101964.69
2023-01-29T20:20:48.158Z,101976.78
2023-01-29T20:23:25.031Z,101967.88
2023-01-29T20:26:07.359Z,101965.25
2023-01-29T20:28:35.786Z,101964.03
2023-01-29T20:31:03.910Z,101967.44
2023-01-29T20:33:33.593Z,101956.97
2023-01-29T20:36:06.358Z,101949.69
2023-01-29T20:38:34.744Z,101951.50
2023-01-29T20:41:06.210Z,101954.94
2023-01-29T20:43:34.189Z,101965.41
2023-01-29T20:46:02.740Z,101978.31
2023-01-29T20:48:31.559Z,101954.50
2023-01-29T20:51:07.864Z,101956.09
2023-01-29T20:53:35.980Z,101946.41
2023-01-29T20:56:04.743Z,101957.47
2023-01-29T20:58:33.195Z,101971.19
2023-01-29T21:01:01.039Z,101955.00
2023-01-29T21:03:28.870Z,101940.06
2023-01-29T21:05:59.043Z,101951.94
2023-01-29T21:08:28.270Z,101938.59
2023-01-29T21:10:56.170Z,101934.19
2023-01-29T21:13:24.047Z,101947.06
2023-01-29T21:15:51.990Z,101956.53
2023-01-29T21:18:19.789Z,101944.00
2023-01-29T21:20:50.424Z,101952.44
2023-01-29T21:23:18.271Z,101932.03
2023-01-29T21:25:48.050Z,101944.97
2023-01-29T21:28:16.781Z,101947.34
2023-01-29T21:30:44.660Z,101951.38
2023-01-29T21:33:12.870Z,101939.41
2023-01-29T21:35:40.672Z,101943.41
2023-01-29T21:38:08.787Z,101939.34
2023-01-29T21:40:36.580Z,101938.06
2023-01-29T21:43:15.459Z,101943.69
2023-01-29T21:45:44.104Z,101945.91
2023-01-29T21:48:13.012Z,101922.84
2023-01-29T21:50:40.876Z,101897.41
2023-01-29T21:53:08.677Z,101878.38
2023-01-29T21:55:36.498Z,101877.13
2023-01-29T21:58:04.368Z,101861.97
2023-01-29T22:00:33.875Z,101849.41
2023-01-29T22:03:01.729Z,101840.28
2023-01-29T22:05:30.219Z,101829.78
2023-01-29T22:07:58.097Z,101818.25
2023-01-29T22:10:26.103Z,101819.63
2023-01-29T22:12:54.042Z,101818.63
2023-01-29T22:15:23.701Z,101802.88
2023-01-29T22:17:53.266Z,101836.75
2023-01-29T22:20:29.465Z,101846.25
2023-01-29T22:22:58.827Z,101838.13
2023-01-29T22:25:26.586Z,101824.81
2023-01-29T22:27:54.472Z,101814.28
2023-01-29T22:30:23.314Z,101811.66
2023-01-29T22:32:51.321Z,101813.25
2023-01-29T22:35:20.418Z,101815.44
2023-01-29T22:37:48.250Z,101822.06
2023-01-29T22:40:16.304Z,101806.06
2023-01-29T22:42:44.169Z,101805.63
2023-01-29T22:45:13.080Z,101798.31
2023-01-29T22:47:40.899Z,101785.75
2023-01-29T22:50:09.528Z,101782.91
2023-01-29T22:52:42.678Z,101776.41
2023-01-29T22:55:13.075Z,101771.25
2023-01-29T22:57:41.214Z,101763.75
2023-01-29T23:00:13.118Z,101762.47
2023-01-29T23:02:40.867Z,101776.75
2023-01-29T23:05:09.474Z,101782.56
2023-01-29T23:07:38.607Z,101777.66
2023-01-29T23:10:07.451Z,101774.56
2023-01-29T23:12:35.466Z,101767.03
2023-01-29T23:15:03.260Z,101759.16
2023-01-29T23:17:31.121Z,101763.72
2023-01-29T23:19:58.901Z,101745.09
2023-01-29T23:22:26.733Z,101743.03
2023-01-29T23:24:56.359Z,101750.00
2023-01-29T23:27:23.186Z,101755.81
2023-01-29T23:29:51.095Z,101745.06
2023-01-29T23:32:20.811Z,101731.47
2023-01-29T23:34:48.659Z,101721.31
2023-01-29T23:37:16.447Z,101697.44
2023-01-29T23:39:44.203Z,101695.13
2023-01-29T23:42:13.323Z,101711.25
2023-01-29T23:44:41.172Z,101696.34
2023-01-29T23:47:09.712Z,101687.00
2023-01-29T23:49:37.702Z,101696.44
2023-01-29T23:52:05.799Z,101702.28
2023-01-29T23:54:33.569Z,101700.22
2023-01-29T23:57:01.386Z,101692.91
2023-01-29T23:59:30.632Z,101683.97
